createdAt,value
2019-01-25T00:00:44.037Z,97.30
2019-01-25T00:03:16.083Z,98.20
2019-01-25T00:05:48.462Z,99.10
2019-01-25T00:08:20.970Z,99.90
2019-01-25T00:10:53.365Z,99.90
2019-01-25T00:13:25.240Z,99.90
2019-01-25T00:15:57.284Z,99.90
2019-01-25T00:18:30.441Z,99.90
2019-01-25T00:21:02.836Z,99.90
2019-01-25T00:23:34.983Z,99.90
2019-01-25T00:26:12.346Z,99.90
2019-01-25T00:28:45.773Z,99.90
2019-01-25T00:31:18.120Z,99.90
2019-01-25T00:33:50.719Z,99.90
2019-01-25T00:36:22.860Z,99.90
2019-01-25T00:38:55.299Z,99.90
2019-01-25T00:41:27.453Z,99.90
2019-01-25T00:43:59.833Z,99.90
2019-01-25T00:46:32.159Z,99.90
2019-01-25T00:49:04.990Z,99.90
2019-01-25T00:51:37.231Z,99.90
2019-01-25T00:54:09.467Z,99.90
2019-01-25T00:56:42.970Z,99.90
2019-01-25T00:59:15.289Z,99.90
2019-01-25T01:01:47.893Z,99.90
2019-01-25T01:04:22.496Z,99.90
2019-01-25T01:06:56.382Z,99.90
2019-01-25T01:09:28.790Z,99.90
2019-01-25T01:12:02.204Z,99.90
2019-01-25T01:14:34.292Z,99.90
2019-01-25T01:17:06.498Z,99.90
2019-01-25T01:19:38.666Z,99.90
2019-01-25T01:22:10.935Z,99.90
2019-01-25T01:24:42.999Z,99.90
2019-01-25T01:27:16.951Z,99.90
2019-01-25T01:29:51.179Z,99.90
2019-01-25T01:32:23.185Z,99.90
2019-01-25T01:34:55.872Z,99.90
2019-01-25T01:37:29.683Z,99.90
2019-01-25T01:40:02.385Z,99.90
2019-01-25T01:42:34.482Z,99.90
2019-01-25T01:45:08.913Z,99.90
2019-01-25T01:47:41.092Z,99.90
2019-01-25T01:50:15.749Z,99.90
2019-01-25T01:52:48.852Z,99.90
2019-01-25T01:55:22.079Z,99.90
2019-01-25T01:57:56.533Z,99.90
2019-01-25T02:00:29.156Z,99.90
2019-01-25T02:03:04.026Z,99.90
2019-01-25T02:05:40.840Z,99.90
2019-01-25T02:08:14.763Z,99.90
2019-01-25T02:10:47.902Z,99.90
2019-01-25T02:13:20.111Z,99.90
2019-01-25T02:15:53.062Z,99.90
2019-01-25T02:18:25.983Z,99.90
2019-01-25T02:20:58.638Z,99.90
2019-01-25T02:23:32.518Z,99.90
2019-01-25T02:26:04.958Z,99.90
2019-01-25T02:28:37.994Z,99.90
2019-01-25T02:31:10.100Z,99.90
2019-01-25T02:33:42.101Z,99.90
2019-01-25T02:36:14.268Z,99.90
2019-01-25T02:38:46.882Z,99.90
2019-01-25T02:41:18.973Z,99.90
2019-01-25T02:43:54.620Z,99.90
2019-01-25T02:46:28.881Z,99.90
2019-01-25T02:49:01.431Z,99.90
2019-01-25T02:51:34.111Z,99.90
2019-01-25T02:54:06.863Z,99.90
2019-01-25T02:56:41.144Z,99.90
2019-01-25T02:59:13.691Z,99.90
2019-01-25T03:01:45.962Z,99.90
2019-01-25T03:04:18.119Z,99.90
2019-01-25T03:06:50.694Z,99.90
2019-01-25T03:09:23.163Z,99.90
2019-01-25T03:11:55.516Z,99.90
2019-01-25T03:14:28.137Z,99.90
2019-01-25T03:17:00.750Z,99.90
2019-01-25T03:19:33.570Z,99.90
2019-01-25T03:22:07.938Z,99.90
2019-01-25T03:24:41.270Z,99.90
2019-01-25T03:27:13.372Z,99.90
2019-01-25T03:29:47.570Z,99.90
2019-01-25T03:32:19.978Z,99.90
2019-01-25T03:34:51.969Z,99.90
2019-01-25T03:37:24.059Z,99.90
2019-01-25T03:39:56.887Z,99.90
2019-01-25T03:42:29.725Z,99.90
2019-01-25T03:45:02.103Z,99.90
2019-01-25T03:47:34.302Z,99.90
2019-01-25T03:50:09.274Z,99.90
2019-01-25T03:52:42.432Z,99.90
2019-01-25T03:55:20.609Z,99.90
2019-01-25T03:57:53.754Z,99.90
2019-01-25T04:00:28.239Z,99.90
2019-01-25T04:03:00.570Z,99.90
2019-01-25T04:05:33.649Z,99.90
2019-01-25T04:08:05.986Z,99.90
2019-01-25T04:10:38.194Z,99.90
2019-01-25T04:13:10.438Z,99.90
2019-01-25T04:15:42.891Z,99.90
2019-01-25T04:18:14.943Z,99.90
2019-01-25T04:20:47.068Z,99.90
2019-01-25T04:23:19.929Z,99.90
2019-01-25T04:25:52.402Z,99.90
2019-01-25T04:28:24.786Z,99.90
2019-01-25T04:30:57.483Z,99.90
2019-01-25T04:33:29.595Z,99.90
2019-01-25T04:36:02.468Z,99.90
2019-01-25T04:38:35.778Z,99.90
2019-01-25T04:41:11.785Z,99.90
2019-01-25T04:43:42.770Z,99.90
2019-01-25T04:46:15.737Z,99.90
2019-01-25T04:48:48.506Z,99.90
2019-01-25T04:51:20.771Z,99.90
2019-01-25T04:53:54.286Z,99.90
2019-01-25T04:56:26.671Z,99.90
2019-01-25T04:58:59.290Z,99.90
2019-01-25T05:01:31.454Z,99.90
2019-01-25T05:04:04.086Z,99.90
2019-01-25T05:06:36.651Z,99.90
2019-01-25T05:09:10.044Z,99.90
2019-01-25T05:11:42.780Z,99.90
2019-01-25T05:14:15.130Z,99.90
2019-01-25T05:16:47.941Z,99.90
2019-01-25T05:19:20.627Z,99.90
2019-01-25T05:21:53.356Z,99.90
2019-01-25T05:24:26.262Z,99.90
2019-01-25T05:26:59.842Z,99.90
2019-01-25T05:29:46.485Z,99.90
2019-01-25T05:32:19.269Z,99.90
2019-01-25T05:34:52.064Z,99.90
2019-01-25T05:37:24.384Z,99.90
2019-01-25T05:39:56.793Z,99.90
2019-01-25T05:42:29.574Z,99.90
2019-01-25T05:45:05.934Z,99.90
2019-01-25T05:47:38.205Z,99.90
2019-01-25T05:50:12.922Z,99.90
2019-01-25T05:52:45.420Z,99.90
2019-01-25T05:55:22.745Z,99.90
2019-01-25T05:58:04.506Z,99.90
2019-01-25T06:00:38.145Z,99.90
2019-01-25T06:03:13.393Z,99.90
2019-01-25T06:05:46.692Z,99.90
2019-01-25T06:08:30.130Z,99.90
2019-01-25T06:11:04.570Z,99.90
2019-01-25T06:13:38.183Z,99.90
2019-01-25T06:16:10.705Z,99.90
2019-01-25T06:18:43.090Z,99.90
2019-01-25T06:21:15.687Z,99.90
2019-01-25T06:23:48.070Z,99.90
2019-01-25T06:26:21.021Z,99.90
2019-01-25T06:28:53.599Z,99.90
2019-01-25T06:31:26.374Z,99.90
2019-01-25T06:33:59.176Z,99.90
2019-01-25T06:36:33.199Z,99.90
2019-01-25T06:39:07.356Z,99.90
2019-01-25T06:41:44.034Z,99.90
2019-01-25T06:44:13.294Z,99.90
2019-01-25T06:46:45.738Z,99.90
2019-01-25T06:49:17.933Z,99.90
2019-01-25T06:51:50.261Z,99.90
2019-01-25T06:54:22.656Z,99.90
2019-01-25T06:56:55.017Z,99.90
2019-01-25T06:59:27.374Z,99.90
2019-01-25T07:02:00.888Z,99.90
2019-01-25T07:04:33.085Z,99.90
2019-01-25T07:07:07.173Z,99.90
2019-01-25T07:09:40.301Z,99.90
2019-01-25T07:12:12.589Z,99.90
2019-01-25T07:14:44.672Z,99.90
2019-01-25T07:17:17.357Z,99.90
2019-01-25T07:19:49.508Z,99.90
2019-01-25T07:22:22.088Z,99.90
2019-01-25T07:24:57.300Z,99.90
2019-01-25T07:27:28.129Z,99.90
2019-01-25T07:30:00.949Z,99.90
2019-01-25T07:32:33.390Z,99.90
2019-01-25T07:35:07.020Z,99.90
2019-01-25T07:37:39.555Z,99.90
2019-01-25T07:40:14.979Z,99.90
2019-01-25T07:42:46.843Z,99.90
2019-01-25T07:45:19.044Z,99.90
2019-01-25T07:47:50.979Z,99.90
2019-01-25T07:50:23.352Z,99.90
2019-01-25T07:52:55.381Z,99.90
2019-01-25T07:55:27.306Z,99.90
2019-01-25T07:57:59.348Z,99.90
2019-01-25T08:00:31.823Z,99.90
2019-01-25T08:03:04.217Z,99.90
2019-01-25T08:05:36.470Z,99.90
2019-01-25T08:08:08.354Z,99.90
2019-01-25T08:10:40.636Z,99.90
2019-01-25T08:13:13.315Z,99.90
2019-01-25T08:15:45.650Z,99.90
2019-01-25T08:18:18.338Z,99.90
2019-01-25T08:20:50.529Z,99.90
2019-01-25T08:23:22.742Z,99.90
2019-01-25T08:25:55.037Z,99.90
2019-01-25T08:28:27.102Z,99.90
2019-01-25T08:30:59.552Z,99.90
2019-01-25T08:33:33.037Z,99.90
2019-01-25T08:36:05.687Z,99.90
2019-01-25T08:38:38.004Z,99.90
2019-01-25T08:41:10.741Z,99.90
2019-01-25T08:43:43.050Z,99.90
2019-01-25T08:46:15.777Z,99.90
2019-01-25T08:48:47.850Z,99.90
2019-01-25T08:51:20.186Z,99.90
2019-01-25T08:53:52.616Z,99.90
2019-01-25T08:56:25.205Z,99.90
2019-01-25T08:58:58.793Z,99.90
2019-01-25T09:01:31.180Z,99.90
2019-01-25T09:04:03.322Z,99.90
2019-01-25T09:06:35.408Z,99.90
2019-01-25T09:09:09.187Z,99.90
2019-01-25T09:11:41.449Z,99.90
2019-01-25T09:14:13.806Z,99.90
2019-01-25T09:16:45.905Z,99.90
2019-01-25T09:19:18.038Z,99.90
2019-01-25T09:21:50.489Z,99.90
2019-01-25T09:24:22.368Z,99.90
2019-01-25T09:26:54.629Z,99.90
2019-01-25T09:29:26.711Z,99.90
2019-01-25T09:31:59.075Z,99.90
2019-01-25T09:34:31.513Z,99.90
2019-01-25T09:37:04.457Z,99.90
2019-01-25T09:39:36.601Z,99.90
2019-01-25T09:42:09.054Z,99.90
2019-01-25T09:44:41.405Z,99.90
2019-01-25T09:47:14.174Z,99.90
2019-01-25T09:49:46.360Z,99.90
2019-01-25T09:52:18.472Z,99.90
2019-01-25T09:54:50.551Z,99.90
2019-01-25T09:57:22.977Z,99.90
2019-01-25T09:59:55.541Z,99.90
2019-01-25T10:02:27.693Z,99.90
2019-01-25T10:04:59.841Z,99.90
2019-01-25T10:07:32.484Z,99.90
2019-01-25T10:10:05.342Z,99.90
2019-01-25T10:12:43.294Z,99.90
2019-01-25T10:15:17.197Z,99.90
2019-01-25T10:17:49.370Z,99.90
2019-01-25T10:20:21.775Z,99.90
2019-01-25T10:22:54.150Z,99.90
2019-01-25T10:25:26.601Z,99.90
2019-01-25T10:27:59.095Z,99.90
2019-01-25T10:30:32.421Z,99.90
2019-01-25T10:33:05.071Z,99.90
2019-01-25T10:35:37.385Z,99.90
2019-01-25T10:38:09.599Z,99.90
2019-01-25T10:40:42.019Z,99.90
2019-01-25T10:43:14.782Z,99.90
2019-01-25T10:45:47.229Z,99.90
2019-01-25T10:48:19.846Z,99.90
2019-01-25T10:50:52.561Z,99.90
2019-01-25T10:53:24.949Z,99.90
2019-01-25T10:55:57.225Z,99.90
2019-01-25T10:58:29.563Z,99.90
2019-01-25T11:01:01.962Z,99.90
2019-01-25T11:03:34.021Z,99.90
2019-01-25T11:06:06.190Z,99.90
2019-01-25T11:08:38.398Z,99.90
2019-01-25T11:11:10.714Z,99.90
2019-01-25T11:13:43.377Z,99.90
2019-01-25T11:16:15.528Z,99.90
2019-01-25T11:18:48.110Z,99.90
2019-01-25T11:21:20.482Z,99.90
2019-01-25T11:23:52.802Z,99.90
2019-01-25T11:26:25.161Z,99.90
2019-01-25T11:28:57.710Z,99.90
2019-01-25T11:31:29.666Z,99.90
2019-01-25T11:34:01.739Z,99.90
2019-01-25T11:36:33.605Z,99.90
2019-01-25T11:39:06.897Z,99.90
2019-01-25T11:41:38.752Z,99.90
2019-01-25T11:44:10.621Z,99.90
2019-01-25T11:46:42.654Z,99.90
2019-01-25T11:49:14.730Z,99.90
2019-01-25T11:51:46.666Z,99.90
2019-01-25T11:54:19.221Z,99.90
2019-01-25T11:56:51.863Z,99.90
2019-01-25T11:59:23.770Z,99.90
2019-01-25T12:01:55.778Z,99.90
2019-01-25T12:04:27.855Z,99.90
2019-01-25T12:06:59.859Z,99.90
2019-01-25T12:09:31.841Z,99.90
2019-01-25T12:12:04.112Z,99.90
2019-01-25T12:14:36.196Z,99.90
2019-01-25T12:17:08.233Z,99.90
2019-01-25T12:19:40.362Z,99.90
2019-01-25T12:22:12.268Z,99.90
2019-01-25T12:24:44.587Z,99.90
2019-01-25T12:27:16.709Z,99.90
2019-01-25T12:29:49.093Z,99.90
2019-01-25T12:32:21.061Z,99.90
2019-01-25T12:34:56.500Z,99.90
2019-01-25T12:37:28.366Z,99.90
2019-01-25T12:40:00.512Z,99.90
2019-01-25T12:42:32.409Z,99.90
2019-01-25T12:45:04.682Z,99.90
2019-01-25T12:47:36.874Z,99.90
2019-01-25T12:50:33.103Z,99.90
2019-01-25T12:53:07.850Z,99.90
2019-01-25T12:55:39.858Z,99.90
2019-01-25T12:58:12.351Z,99.90
2019-01-25T13:00:44.414Z,99.90
2019-01-25T13:03:16.576Z,99.90
2019-01-25T13:05:48.964Z,99.90
2019-01-25T13:08:23.246Z,99.90
2019-01-25T13:10:55.540Z,99.90
2019-01-25T13:13:31.764Z,99.90
2019-01-25T13:16:02.422Z,99.90
2019-01-25T13:18:34.518Z,99.90
2019-01-25T13:21:07.123Z,99.90
2019-01-25T13:23:39.007Z,99.90
2019-01-25T13:26:11.438Z,99.90
2019-01-25T13:28:43.678Z,99.90
2019-01-25T13:31:16.016Z,99.90
2019-01-25T13:33:52.709Z,99.90
2019-01-25T13:36:24.554Z,99.90
2019-01-25T13:38:56.733Z,99.90
2019-01-25T13:41:28.982Z,99.90
2019-01-25T13:44:01.461Z,99.90
2019-01-25T13:46:33.448Z,99.90
2019-01-25T13:49:30.513Z,99.90
2019-01-25T13:52:02.356Z,99.90
2019-01-25T13:54:34.413Z,99.90
2019-01-25T13:57:06.633Z,99.90
2019-01-25T13:59:39.178Z,99.90
2019-01-25T14:02:11.541Z,99.90
2019-01-25T14:04:43.540Z,99.90
2019-01-25T14:07:15.496Z,99.90
2019-01-25T14:09:47.480Z,99.90
2019-01-25T14:12:19.947Z,99.90
2019-01-25T14:14:52.254Z,99.90
2019-01-25T14:17:24.146Z,99.90
2019-01-25T14:19:56.279Z,99.90
2019-01-25T14:22:29.243Z,99.90
2019-01-25T14:25:02.313Z,99.90
2019-01-25T14:27:34.358Z,99.90
2019-01-25T14:30:11.592Z,99.90
2019-01-25T14:32:44.130Z,99.90
2019-01-25T14:35:16.327Z,99.90
2019-01-25T14:37:49.670Z,99.90
2019-01-25T14:40:22.178Z,99.90
2019-01-25T14:42:54.177Z,99.90
2019-01-25T14:45:26.438Z,99.90
2019-01-25T14:47:58.523Z,99.90
2019-01-25T14:50:33.950Z,99.90
2019-01-25T14:53:06.519Z,99.90
2019-01-25T14:55:39.156Z,99.90
2019-01-25T14:58:11.269Z,99.90
2019-01-25T15:00:43.152Z,99.90
2019-01-25T15:03:15.026Z,99.90
2019-01-25T15:05:46.936Z,99.90
2019-01-25T15:08:18.739Z,99.90
2019-01-25T15:10:51.092Z,99.90
2019-01-25T15:13:23.615Z,99.90
2019-01-25T15:15:55.618Z,99.90
2019-01-25T15:22:08.012Z,99.90
2019-01-25T15:24:40.094Z,99.90
2019-01-25T15:27:12.369Z,99.90
2019-01-25T15:29:44.285Z,99.90
2019-01-25T15:32:17.097Z,99.90
2019-01-25T15:34:49.685Z,99.90
2019-01-25T15:37:22.378Z,99.90
2019-01-25T15:39:54.588Z,99.90
2019-01-25T15:42:26.330Z,99.90
2019-01-25T15:44:58.269Z,99.90
2019-01-25T15:47:31.684Z,99.90
2019-01-25T15:50:03.819Z,99.90
2019-01-25T15:52:38.609Z,99.90
2019-01-25T15:55:12.645Z,99.90
2019-01-25T15:57:45.091Z,99.90
2019-01-25T16:00:20.077Z,99.90
2019-01-25T16:02:52.985Z,99.90
2019-01-25T16:05:31.516Z,99.90
2019-01-25T16:08:05.709Z,99.90
2019-01-25T16:10:39.084Z,99.90
2019-01-25T16:13:11.846Z,99.90
2019-01-25T16:15:44.418Z,99.90
2019-01-25T16:18:16.302Z,99.90
2019-01-25T16:23:35.825Z,99.90
2019-01-25T16:26:07.938Z,99.90
2019-01-25T16:28:39.862Z,99.90
2019-01-25T16:31:12.225Z,99.90
2019-01-25T16:33:44.389Z,99.90
2019-01-25T16:36:16.773Z,99.90
2019-01-25T16:38:48.677Z,99.90
2019-01-25T16:41:20.801Z,99.90
2019-01-25T16:43:53.197Z,99.90
2019-01-25T16:46:27.431Z,99.90
2019-01-25T16:48:59.483Z,99.90
2019-01-25T16:51:31.872Z,99.90
2019-01-25T16:54:03.969Z,99.90
2019-01-25T16:56:36.188Z,99.90
2019-01-25T16:59:08.425Z,99.90
2019-01-25T17:01:41.694Z,99.90
2019-01-25T17:04:16.478Z,99.90
2019-01-25T17:06:48.157Z,99.90
2019-01-25T17:09:20.312Z,99.90
2019-01-25T17:11:52.134Z,99.90
2019-01-25T17:14:24.330Z,99.30
2019-01-25T17:16:56.653Z,99.90
2019-01-25T17:19:28.659Z,99.90
2019-01-25T17:22:01.258Z,99.90
2019-01-25T17:24:33.206Z,98.80
2019-01-25T17:27:05.113Z,96.40
2019-01-25T17:29:37.375Z,95.30
2019-01-25T17:32:09.522Z,95.50
2019-01-25T17:34:42.073Z,95.80
2019-01-25T17:37:15.322Z,94.40
2019-01-25T17:39:48.739Z,94.80
2019-01-25T17:42:20.781Z,93.90
2019-01-25T17:44:53.754Z,95.00
2019-01-25T17:47:28.126Z,93.60
2019-01-25T17:50:00.479Z,92.60
2019-01-25T17:52:32.347Z,93.70
2019-01-25T17:55:06.679Z,93.90
2019-01-25T17:57:40.330Z,95.20
2019-01-25T18:00:21.205Z,95.30
2019-01-25T18:02:53.449Z,93.40
2019-01-25T18:05:28.002Z,94.10
2019-01-25T18:08:01.089Z,95.10
2019-01-25T18:10:33.779Z,94.30
2019-01-25T18:13:07.634Z,92.90
2019-01-25T18:15:40.495Z,94.10
2019-01-25T18:18:13.299Z,93.30
2019-01-25T18:20:45.939Z,94.30
2019-01-25T18:23:18.009Z,94.90
2019-01-25T18:25:52.383Z,92.60
2019-01-25T18:28:28.528Z,92.80
2019-01-25T18:31:11.634Z,93.50
2019-01-25T18:33:52.247Z,94.30
2019-01-25T18:36:24.661Z,95.00
2019-01-25T18:38:58.568Z,94.20
2019-01-25T18:41:31.657Z,93.80
2019-01-25T18:44:07.724Z,94.10
2019-01-25T18:46:40.681Z,92.60
2019-01-25T18:49:12.609Z,93.70
2019-01-25T18:51:44.474Z,92.80
2019-01-25T18:57:44.472Z,91.50
2019-01-25T19:00:21.014Z,92.10
2019-01-25T19:02:53.665Z,91.60
2019-01-25T19:05:25.769Z,92.30
2019-01-25T19:07:59.024Z,92.50
2019-01-25T19:10:46.624Z,92.60
2019-01-25T19:13:24.182Z,93.10
2019-01-25T19:15:56.038Z,92.60
2019-01-25T19:18:29.010Z,90.80
2019-01-25T19:21:00.968Z,90.00
2019-01-25T19:23:32.915Z,90.10
2019-01-25T19:26:05.085Z,89.00
2019-01-25T19:28:37.551Z,90.00
2019-01-25T19:31:10.049Z,88.40
2019-01-25T19:33:46.943Z,87.70
2019-01-25T19:36:21.316Z,82.50
2019-01-25T19:38:55.261Z,80.80
2019-01-25T19:41:27.422Z,80.60
2019-01-25T19:43:59.450Z,84.50
2019-01-25T19:46:31.716Z,86.50
2019-01-25T19:49:04.601Z,84.40
2019-01-25T19:51:36.848Z,84.40
2019-01-25T19:54:08.925Z,83.30
2019-01-25T19:56:40.788Z,83.40
2019-01-25T19:59:13.275Z,82.60
2019-01-25T20:01:45.436Z,82.70
2019-01-25T20:07:53.189Z,78.10
2019-01-25T20:10:25.481Z,78.70
2019-01-25T20:12:59.747Z,78.50
2019-01-25T20:15:31.940Z,79.00
2019-01-25T20:18:15.219Z,79.40
2019-01-25T20:21:07.282Z,80.80
2019-01-25T20:23:50.091Z,79.80
2019-01-25T20:26:37.305Z,79.00
2019-01-25T20:29:31.351Z,79.20
2019-01-25T20:32:08.794Z,79.80
2019-01-25T20:34:40.925Z,78.20
2019-01-25T20:37:13.574Z,79.80
2019-01-25T20:39:45.397Z,82.00
2019-01-25T20:42:17.164Z,81.70
2019-01-25T20:44:49.665Z,80.70
2019-01-25T20:47:21.561Z,78.60
2019-01-25T20:49:53.365Z,75.60
2019-01-25T20:52:25.842Z,76.30
2019-01-25T20:54:57.536Z,76.70
2019-01-25T20:57:29.432Z,78.50
2019-01-25T21:00:08.415Z,78.90
2019-01-25T21:02:34.992Z,79.90
2019-01-25T21:05:11.219Z,80.70
2019-01-25T21:07:51.069Z,80.40
2019-01-25T21:10:25.603Z,78.80
2019-01-25T21:12:58.792Z,78.20
2019-01-25T21:15:35.366Z,79.60
2019-01-25T21:18:04.867Z,79.20
2019-01-25T21:20:45.103Z,80.30
2019-01-25T21:23:18.768Z,78.40
2019-01-25T21:25:50.834Z,77.60
2019-01-25T21:28:22.942Z,78.90
2019-01-25T21:30:54.886Z,79.20
2019-01-25T21:33:26.836Z,79.30
2019-01-25T21:35:59.306Z,79.20
2019-01-25T21:38:31.421Z,78.70
2019-01-25T21:41:03.107Z,79.50
2019-01-25T21:43:35.455Z,81.00
2019-01-25T21:46:13.554Z,80.30
2019-01-25T21:48:45.215Z,80.30
2019-01-25T21:51:17.267Z,76.00
2019-01-25T21:53:49.787Z,76.80
2019-01-25T21:56:23.597Z,77.10
2019-01-25T21:58:57.940Z,77.90
2019-01-25T22:01:30.530Z,78.40
2019-01-25T22:04:04.504Z,78.50
2019-01-25T22:06:36.429Z,79.40
2019-01-25T22:09:11.390Z,79.10
2019-01-25T22:11:43.265Z,79.50
2019-01-25T22:14:16.864Z,79.70
2019-01-25T22:16:48.612Z,81.30
2019-01-25T22:19:20.271Z,80.40
2019-01-25T22:21:51.992Z,80.00
2019-01-25T22:24:24.363Z,80.80
2019-01-25T22:26:56.532Z,80.30
2019-01-25T22:29:28.198Z,81.60
2019-01-25T22:31:59.860Z,83.00
2019-01-25T22:34:31.738Z,83.10
2019-01-25T22:37:03.846Z,81.70
2019-01-25T22:39:35.588Z,81.80
2019-01-25T22:42:07.240Z,82.60
2019-01-25T22:44:39.100Z,83.20
2019-01-25T22:47:11.016Z,83.50
2019-01-25T22:49:44.640Z,82.70
2019-01-25T22:52:16.690Z,83.30
2019-01-25T22:54:48.596Z,83.50
2019-01-25T22:57:20.524Z,81.70
2019-01-25T22:59:52.829Z,81.00
2019-01-25T23:02:24.855Z,83.10
2019-01-25T23:05:04.919Z,85.10
2019-01-25T23:07:38.486Z,85.80
2019-01-25T23:10:12.730Z,86.10
2019-01-25T23:12:44.711Z,86.90
2019-01-25T23:15:18.724Z,88.20
2019-01-25T23:17:50.972Z,89.80
2019-01-25T23:20:23.283Z,90.50
2019-01-25T23:22:54.972Z,91.30
2019-01-25T23:25:26.663Z,91.80
2019-01-25T23:27:58.528Z,92.60
2019-01-25T23:30:30.352Z,93.80
2019-01-25T23:33:02.226Z,95.00
2019-01-25T23:35:33.964Z,96.40
2019-01-25T23:38:05.871Z,97.80
2019-01-25T23:40:38.124Z,99.10
2019-01-25T23:43:10.750Z,99.90
2019-01-25T23:45:42.517Z,99.90
2019-01-25T23:48:15.821Z,99.90
2019-01-25T23:50:48.760Z,99.90
2019-01-25T23:53:21.155Z,99.90
2019-01-25T23:55:53.795Z,99.90
2019-01-25T23:58:25.643Z,99.90
